Time;durP1;ratioP1;P1;durP2;ratioP2;P2;SDS_P1;SDS_P2;PMS_P1;PMS_P2;Temp;Humidity;BMP_temperature;BMP_pressure;BME280_temperature;BME280_humidity;BME280_pressure;Samples;Min_cycle;Max_cycle;Signal;HPM_P1;HPM_P2
2023/08/29 00:01:33;;;;;;;0.45;0.30;;;;;;;;;;6214372;23;20075;-66
2023/08/29 00:03:59;;;;;;;0.40;0.20;;;;;;;;;;6214573;23;20091;-66
2023/08/29 00:06:26;;;;;;;0.30;0.30;;;;;;;;;;6214775;23;20059;-66
2023/08/29 00:08:52;;;;;;;0.38;0.38;;;;;;;;;;6214763;23;20075;-66
2023/08/29 00:11:18;;;;;;;0.38;0.38;;;;;;;;;;6214700;23;20071;-66
2023/08/29 00:13:45;;;;;;;0.55;0.40;;;;;;;;;;6214607;23;20072;-66
2023/08/29 00:16:16;;;;;;;0.52;0.38;;;;;;;;;;6187762;23;20064;-66
2023/08/29 00:18:43;;;;;;;0.40;0.40;;;;;;;;;;6214811;23;20075;-67
2023/08/29 00:21:09;;;;;;;0.40;0.40;;;;;;;;;;6214646;23;20059;-66
2023/08/29 00:23:35;;;;;;;2.60;0.50;;;;;;;;;;6214527;23;20522;-66
2023/08/29 00:26:03;;;;;;;0.63;0.30;;;;;;;;;;6214582;23;20327;-67
2023/08/29 00:28:29;;;;;;;1.10;0.40;;;;;;;;;;6214506;23;20080;-66
2023/08/29 00:30:55;;;;;;;0.63;0.30;;;;;;;;;;6214275;23;20075;-67
2023/08/29 00:33:22;;;;;;;2.03;0.32;;;;;;;;;;6214645;23;20071;-66
2023/08/29 00:35:48;;;;;;;1.02;0.50;;;;;;;;;;6214364;23;20570;-66
2023/08/29 00:38:15;;;;;;;7.45;0.60;;;;;;;;;;6214666;23;20091;-66
2023/08/29 00:40:41;;;;;;;0.90;0.55;;;;;;;;;;6214561;23;20068;-66
2023/08/29 00:43:07;;;;;;;0.32;0.32;;;;;;;;;;6214465;23;20515;-67
2023/08/29 00:45:35;;;;;;;0.47;0.43;;;;;;;;;;6187712;23;20067;-66
2023/08/29 00:48:02;;;;;;;0.50;0.30;;;;;;;;;;6215190;23;20080;-67
2023/08/29 00:50:28;;;;;;;2.13;0.40;;;;;;;;;;6189741;23;20075;-66
2023/08/29 00:52:58;;;;;;;1.00;0.50;;;;;;;;;;6216448;23;20491;-66
2023/08/29 00:55:25;;;;;;;0.38;0.38;;;;;;;;;;6216745;23;20075;-66
2023/08/29 00:57:55;;;;;;;0.35;0.32;;;;;;;;;;6216410;23;20072;-66
2023/08/29 01:00:22;;;;;;;;;;;;;;;;;;6216359;23;20080;-66
2023/08/29 01:02:48;;;;;;;1.15;0.47;;;;;;;;;;6216282;23;19979;-66
2023/08/29 01:05:14;;;;;;;0.40;0.40;;;;;;;;;;6216403;23;20072;-66
2023/08/29 01:07:41;;;;;;;2.00;0.40;;;;;;;;;;6216349;23;20509;-66
2023/08/29 01:10:08;;;;;;;0.80;0.45;;;;;;;;;;6216342;23;20080;-66
2023/08/29 01:12:42;;;;;;;0.20;0.20;;;;;;;;;;6216246;23;20072;-67
2023/08/29 01:15:11;;;;;;;0.63;0.47;;;;;;;;;;6215888;23;20143;-66
2023/08/29 01:17:52;;;;;;;1.42;0.50;;;;;;;;;;6216258;23;20079;-66
2023/08/29 01:20:18;;;;;;;1.25;0.45;;;;;;;;;;6216243;23;20384;-66
2023/08/29 01:22:52;;;;;;;0.38;0.38;;;;;;;;;;6216167;23;20080;-66
2023/08/29 01:25:23;;;;;;;0.70;0.40;;;;;;;;;;6216183;23;20071;-66
2023/08/29 01:27:50;;;;;;;0.40;0.40;;;;;;;;;;6215663;23;20100;-66
2023/08/29 01:30:17;;;;;;;0.40;0.40;;;;;;;;;;6216110;23;20075;-67
2023/08/29 01:32:44;;;;;;;1.85;0.50;;;;;;;;;;6216180;23;20080;-67
2023/08/29 01:35:13;;;;;;;1.92;0.40;;;;;;;;;;6215960;23;20080;-66
2023/08/29 01:37:40;;;;;;;0.43;0.40;;;;;;;;;;6216268;23;20076;-66
2023/08/29 01:40:06;;;;;;;0.50;0.50;;;;;;;;;;6215982;23;20079;-66
2023/08/29 01:42:33;;;;;;;1.70;0.40;;;;;;;;;;6215907;23;20084;-66
2023/08/29 01:44:59;;;;;;;0.30;0.30;;;;;;;;;;6215848;23;20095;-66
2023/08/29 01:47:25;;;;;;;0.75;0.50;;;;;;;;;;6216045;23;20063;-66
2023/08/29 01:49:52;;;;;;;0.68;0.35;;;;;;;;;;6215880;23;20079;-67
2023/08/29 01:52:18;;;;;;;0.85;0.40;;;;;;;;;;6215837;23;20388;-66
2023/08/29 01:54:45;;;;;;;1.02;0.60;;;;;;;;;;6215902;23;20487;-66
2023/08/29 01:57:12;;;;;;;0.38;0.38;;;;;;;;;;6215446;23;20076;-66
2023/08/29 01:59:39;;;;;;;0.55;0.50;;;;;;;;;;6215315;23;20075;-66
2023/08/29 02:02:05;;;;;;;1.30;0.50;;;;;;;;;;6215922;23;20076;-66
2023/08/29 02:04:31;;;;;;;2.60;0.50;;;;;;;;;;6215616;23;20019;-66
2023/08/29 02:06:59;;;;;;;1.95;0.55;;;;;;;;;;6215756;23;20063;-66
2023/08/29 02:09:25;;;;;;;0.50;0.50;;;;;;;;;;6215850;23;20080;-66
2023/08/29 02:11:51;;;;;;;2.60;0.68;;;;;;;;;;6215233;23;20080;-66
2023/08/29 02:14:17;;;;;;;0.73;0.63;;;;;;;;;;6215483;23;20084;-67
2023/08/29 02:16:44;;;;;;;1.33;0.70;;;;;;;;;;6215957;23;20072;-66
2023/08/29 02:19:10;;;;;;;1.15;0.63;;;;;;;;;;6215689;23;20075;-66
2023/08/29 02:21:37;;;;;;;2.08;0.70;;;;;;;;;;6215671;23;20071;-66
2023/08/29 02:24:03;;;;;;;2.35;0.60;;;;;;;;;;6215483;23;20087;-67
2023/08/29 02:26:29;;;;;;;0.60;0.52;;;;;;;;;;6215073;23;20083;-66
2023/08/29 02:28:56;;;;;;;1.52;0.60;;;;;;;;;;6215526;23;20075;-66
2023/08/29 02:31:22;;;;;;;2.10;0.80;;;;;;;;;;6215636;23;20084;-66
2023/08/29 02:33:48;;;;;;;0.60;0.50;;;;;;;;;;6215440;23;20478;-66
2023/08/29 02:36:15;;;;;;;1.58;0.52;;;;;;;;;;6215309;23;20402;-66
2023/08/29 02:38:41;;;;;;;0.98;0.70;;;;;;;;;;6215449;23;20491;-66
2023/08/29 02:41:07;;;;;;;1.00;0.60;;;;;;;;;;6214870;23;20368;-66
2023/08/29 02:43:33;;;;;;;2.75;0.60;;;;;;;;;;6215343;23;20138;-66
2023/08/29 02:46:00;;;;;;;1.58;0.85;;;;;;;;;;6215677;23;20080;-66
2023/08/29 02:48:27;;;;;;;0.75;0.60;;;;;;;;;;6215527;23;20075;-66
2023/08/29 02:50:54;;;;;;;0.60;0.60;;;;;;;;;;6215616;23;20071;-66
2023/08/29 02:53:21;;;;;;;0.82;0.63;;;;;;;;;;6215290;23;20067;-66
2023/08/29 02:55:50;;;;;;;1.83;0.57;;;;;;;;;;6214903;23;20495;-66
2023/08/29 02:58:17;;;;;;;1.05;0.60;;;;;;;;;;6215233;23;20063;-66
2023/08/29 03:00:43;;;;;;;1.83;0.70;;;;;;;;;;6215318;23;20068;-66
2023/08/29 03:03:11;;;;;;;0.75;0.70;;;;;;;;;;6215008;23;20403;-66
2023/08/29 03:05:37;;;;;;;0.50;0.50;;;;;;;;;;6188759;23;20076;-66
2023/08/29 03:08:04;;;;;;;2.55;0.70;;;;;;;;;;6215172;23;20084;-66
2023/08/29 03:10:31;;;;;;;3.25;0.80;;;;;;;;;;6214639;23;20507;-66
2023/08/29 03:12:57;;;;;;;0.85;0.65;;;;;;;;;;6188477;23;20506;-66
2023/08/29 03:15:24;;;;;;;1.52;0.70;;;;;;;;;;6215221;23;20080;-66
2023/08/29 03:17:50;;;;;;;1.58;0.52;;;;;;;;;;6215084;23;20068;-66
2023/08/29 03:20:17;;;;;;;0.93;0.68;;;;;;;;;;6215147;23;20072;-66
2023/08/29 03:22:43;;;;;;;2.63;0.73;;;;;;;;;;6214995;23;20510;-67
2023/08/29 03:25:09;;;;;;;0.70;0.70;;;;;;;;;;6214511;23;20079;-66
2023/08/29 03:27:36;;;;;;;2.83;0.70;;;;;;;;;;6215092;23;20071;-66
2023/08/29 03:30:02;;;;;;;2.65;0.63;;;;;;;;;;6215095;23;20084;-66
2023/08/29 03:32:29;;;;;;;1.73;0.73;;;;;;;;;;6214993;23;20075;-67
2023/08/29 03:34:55;;;;;;;1.20;0.50;;;;;;;;;;6214923;23;20079;-66
2023/08/29 03:37:21;;;;;;;2.95;0.70;;;;;;;;;;6214854;23;20076;-66
2023/08/29 03:39:48;;;;;;;3.08;0.98;;;;;;;;;;6214449;23;20068;-67
2023/08/29 03:42:14;;;;;;;3.97;0.70;;;;;;;;;;6214954;23;20393;-66
2023/08/29 03:44:40;;;;;;;1.77;0.90;;;;;;;;;;6214750;23;20088;-66
2023/08/29 03:47:07;;;;;;;1.50;0.90;;;;;;;;;;6214859;23;20122;-66
2023/08/29 03:49:33;;;;;;;1.25;0.80;;;;;;;;;;6214757;23;20084;-66
2023/08/29 03:51:59;;;;;;;1.15;0.85;;;;;;;;;;6214896;23;20068;-66
2023/08/29 03:54:26;;;;;;;1.33;0.70;;;;;;;;;;6214440;23;20076;-66
2023/08/29 03:56:52;;;;;;;1.20;0.50;;;;;;;;;;6214727;23;20071;-66
2023/08/29 03:59:18;;;;;;;4.03;0.80;;;;;;;;;;6214852;23;20067;-66
2023/08/29 04:01:45;;;;;;;1.15;0.90;;;;;;;;;;6214653;23;20075;-66
2023/08/29 04:04:11;;;;;;;1.25;0.90;;;;;;;;;;6214589;23;20083;-66
2023/08/29 04:06:37;;;;;;;1.15;0.75;;;;;;;;;;6214751;23;20088;-66
2023/08/29 04:09:04;;;;;;;1.25;0.75;;;;;;;;;;6214255;23;20076;-66
2023/08/29 04:11:30;;;;;;;3.40;0.90;;;;;;;;;;6214754;23;20071;-66
2023/08/29 04:13:57;;;;;;;0.85;0.70;;;;;;;;;;6214609;23;20071;-67
2023/08/29 04:16:23;;;;;;;4.35;0.80;;;;;;;;;;6214673;23;20372;-66
2023/08/29 04:18:49;;;;;;;2.35;0.80;;;;;;;;;;6214748;23;20079;-66
2023/08/29 04:21:15;;;;;;;0.85;0.70;;;;;;;;;;6214729;23;20079;-66
2023/08/29 04:23:42;;;;;;;2.88;0.73;;;;;;;;;;6215370;23;20073;-66
2023/08/29 04:26:08;;;;;;;2.13;1.27;;;;;;;;;;6216740;23;20059;-66
2023/08/29 04:28:35;;;;;;;2.25;0.90;;;;;;;;;;6216749;23;20396;-66
2023/08/29 04:31:11;;;;;;;1.40;0.80;;;;;;;;;;6216726;23;20072;-66
2023/08/29 04:33:38;;;;;;;3.80;0.88;;;;;;;;;;6216562;23;20073;-66
2023/08/29 04:36:05;;;;;;;3.25;1.00;;;;;;;;;;6216575;23;20079;-66
2023/08/29 04:38:31;;;;;;;2.47;1.00;;;;;;;;;;6216028;23;20079;-66
2023/08/29 04:40:58;;;;;;;1.15;0.75;;;;;;;;;;6216641;23;20083;-66
2023/08/29 04:43:24;;;;;;;1.38;0.60;;;;;;;;;;6216508;23;20076;-66
2023/08/29 04:45:52;;;;;;;0.82;0.70;;;;;;;;;;6216379;23;20138;-66
2023/08/29 04:48:18;;;;;;;2.00;1.02;;;;;;;;;;6216486;23;20072;-66
2023/08/29 04:50:45;;;;;;;1.38;1.17;;;;;;;;;;6216433;23;20076;-66
2023/08/29 04:53:11;;;;;;;1.30;0.98;;;;;;;;;;6215980;23;20067;-67
2023/08/29 04:55:38;;;;;;;1.10;1.00;;;;;;;;;;6216519;23;20068;-66
2023/08/29 04:58:05;;;;;;;1.67;0.82;;;;;;;;;;6216538;23;20515;-66
2023/08/29 05:00:31;;;;;;;1.73;0.90;;;;;;;;;;6216453;23;20077;-66
2023/08/29 05:02:57;;;;;;;2.83;1.00;;;;;;;;;;6216272;23;20071;-66
2023/08/29 05:05:24;;;;;;;2.50;0.80;;;;;;;;;;6216049;23;20059;-66
2023/08/29 05:07:50;;;;;;;1.48;1.00;;;;;;;;;;6216361;23;20080;-66
2023/08/29 05:10:16;;;;;;;1.45;1.05;;;;;;;;;;6216164;23;20422;-66
2023/08/29 05:12:43;;;;;;;0.93;0.90;;;;;;;;;;6216295;23;20075;-66
2023/08/29 05:15:09;;;;;;;1.88;1.05;;;;;;;;;;6189740;23;20518;-66
2023/08/29 05:17:36;;;;;;;3.03;1.08;;;;;;;;;;6216236;23;20080;-66
2023/08/29 05:20:02;;;;;;;2.45;1.20;;;;;;;;;;6215787;23;20063;-66
2023/08/29 05:22:29;;;;;;;1.98;1.00;;;;;;;;;;6216088;23;20372;-66
2023/08/29 05:24:55;;;;;;;2.00;1.20;;;;;;;;;;6216167;23;20084;-66
2023/08/29 05:27:21;;;;;;;1.73;1.10;;;;;;;;;;6216170;23;20071;-66
2023/08/29 05:29:47;;;;;;;2.25;1.20;;;;;;;;;;6216131;23;20084;-66
2023/08/29 05:32:14;;;;;;;3.20;1.10;;;;;;;;;;6216165;23;20067;-66
2023/08/29 05:34:40;;;;;;;1.67;1.20;;;;;;;;;;6215366;23;20075;-66
2023/08/29 05:37:07;;;;;;;2.05;1.10;;;;;;;;;;6216118;23;20075;-66
2023/08/29 05:39:33;;;;;;;1.38;0.98;;;;;;;;;;6215945;23;20434;-66
2023/08/29 05:41:59;;;;;;;1.00;0.98;;;;;;;;;;6216240;23;20079;-66
2023/08/29 05:44:25;;;;;;;1.10;1.00;;;;;;;;;;6215894;23;20126;-66
2023/08/29 05:46:52;;;;;;;1.40;1.10;;;;;;;;;;6215975;23;20068;-66
2023/08/29 05:49:18;;;;;;;1.33;1.00;;;;;;;;;;6215537;23;20072;-66
2023/08/29 05:51:45;;;;;;;1.88;1.02;;;;;;;;;;6215851;23;20072;-66
2023/08/29 05:54:11;;;;;;;3.72;1.30;;;;;;;;;;6215810;23;20392;-66
2023/08/29 05:56:38;;;;;;;1.52;0.90;;;;;;;;;;6215985;23;20123;-66
2023/08/29 05:59:05;;;;;;;1.27;1.00;;;;;;;;;;6215900;23;20490;-66
2023/08/29 06:01:31;;;;;;;1.77;1.10;;;;;;;;;;6215749;23;20076;-66
2023/08/29 06:03:58;;;;;;;2.83;1.17;;;;;;;;;;6215232;23;20482;-66
2023/08/29 06:06:24;;;;;;;2.35;1.10;;;;;;;;;;6215776;23;20506;-66
2023/08/29 06:08:51;;;;;;;1.98;1.00;;;;;;;;;;6215814;23;20067;-66
2023/08/29 06:11:17;;;;;;;1.17;1.00;;;;;;;;;;6215835;23;20076;-66
2023/08/29 06:13:43;;;;;;;1.30;1.05;;;;;;;;;;6215666;23;20426;-66
2023/08/29 06:16:09;;;;;;;1.20;1.10;;;;;;;;;;6215740;23;20083;-66
2023/08/29 06:18:36;;;;;;;1.70;1.20;;;;;;;;;;6215271;23;20064;-66
2023/08/29 06:21:04;;;;;;;6.43;1.42;;;;;;;;;;6215619;23;20076;-66
2023/08/29 06:23:30;;;;;;;2.13;1.10;;;;;;;;;;6215481;23;20376;-66
2023/08/29 06:25:56;;;;;;;1.23;1.13;;;;;;;;;;6215623;23;20079;-66
2023/08/29 06:28:23;;;;;;;1.35;1.10;;;;;;;;;;6215691;23;20068;-65
2023/08/29 06:30:49;;;;;;;1.42;1.10;;;;;;;;;;6215551;23;20071;-66
2023/08/29 06:33:15;;;;;;;1.75;1.00;;;;;;;;;;6215051;23;20135;-66
2023/08/29 06:35:42;;;;;;;2.85;0.95;;;;;;;;;;6211009;23;20099;-65
2023/08/29 06:38:09;;;;;;;1.25;0.93;;;;;;;;;;6214376;23;20362;-66
2023/08/29 06:40:35;;;;;;;1.38;1.00;;;;;;;;;;6188355;23;20084;-66
2023/08/29 06:43:02;;;;;;;2.15;1.23;;;;;;;;;;6214699;23;20080;-66
2023/08/29 06:45:28;;;;;;;2.47;1.02;;;;;;;;;;6214770;23;20080;-66
2023/08/29 06:47:54;;;;;;;4.65;1.27;;;;;;;;;;6214540;23;20071;-66
2023/08/29 06:50:21;;;;;;;1.52;1.15;;;;;;;;;;6214631;23;20071;-66
2023/08/29 06:52:47;;;;;;;3.90;1.20;;;;;;;;;;6214982;23;20088;-66
2023/08/29 06:55:13;;;;;;;2.08;1.15;;;;;;;;;;6214301;23;20071;-66
2023/08/29 06:57:40;;;;;;;1.05;0.95;;;;;;;;;;6213213;23;20068;-66
2023/08/29 07:00:06;;;;;;;0.85;0.85;;;;;;;;;;6214832;23;20068;-67
2023/08/29 07:02:33;;;;;;;2.08;1.02;;;;;;;;;;6214122;23;20076;-66
2023/08/29 07:04:59;;;;;;;2.13;1.13;;;;;;;;;;6213149;23;20019;-66
2023/08/29 07:07:25;;;;;;;3.72;1.20;;;;;;;;;;6187673;23;20478;-66
2023/08/29 07:09:51;;;;;;;3.50;1.15;;;;;;;;;;6214103;23;20083;-66
2023/08/29 07:12:18;;;;;;;2.95;0.80;;;;;;;;;;6214132;23;20084;-66
2023/08/29 07:14:44;;;;;;;3.63;1.20;;;;;;;;;;6213013;23;20072;-67
2023/08/29 07:17:10;;;;;;;3.03;1.20;;;;;;;;;;6212530;23;20067;-66
2023/08/29 07:19:38;;;;;;;2.47;1.30;;;;;;;;;;6187491;23;20087;-66
2023/08/29 07:22:04;;;;;;;2.00;0.90;;;;;;;;;;6214242;23;20088;-66
2023/08/29 07:24:31;;;;;;;2.05;0.90;;;;;;;;;;6213459;23;20016;-66
2023/08/29 07:26:57;;;;;;;2.83;1.20;;;;;;;;;;6213401;23;20072;-66
2023/08/29 07:29:23;;;;;;;1.50;1.15;;;;;;;;;;6214250;23;20079;-67
2023/08/29 07:31:50;;;;;;;2.92;1.58;;;;;;;;;;6213330;23;20083;-65
2023/08/29 07:34:16;;;;;;;4.15;1.20;;;;;;;;;;6213710;23;20055;-65
2023/08/29 07:36:42;;;;;;;2.17;1.10;;;;;;;;;;6213499;23;20091;-65
2023/08/29 07:39:11;;;;;;;1.25;0.98;;;;;;;;;;6212483;23;20095;-64
2023/08/29 07:41:38;;;;;;;1.90;0.95;;;;;;;;;;6213706;23;20458;-66
2023/08/29 07:44:04;;;;;;;2.38;1.27;;;;;;;;;;6213210;23;20414;-66
2023/08/29 07:46:31;;;;;;;1.35;0.75;;;;;;;;;;6212447;23;20076;-65
2023/08/29 07:48:57;;;;;;;3.92;1.00;;;;;;;;;;6213519;23;20067;-65
2023/08/29 07:51:23;;;;;;;2.13;0.93;;;;;;;;;;6187250;23;20075;-65
2023/08/29 07:53:50;;;;;;;2.13;1.10;;;;;;;;;;6213500;23;20071;-65
2023/08/29 07:56:16;;;;;;;3.03;1.20;;;;;;;;;;6213577;23;20083;-65
2023/08/29 07:58:42;;;;;;;2.30;1.38;;;;;;;;;;6213355;23;20067;-66
2023/08/29 08:01:08;;;;;;;3.53;1.20;;;;;;;;;;6212946;23;20135;-66
2023/08/29 08:03:35;;;;;;;1.65;1.10;;;;;;;;;;6213321;23;20080;-66
2023/08/29 08:06:01;;;;;;;1.88;1.00;;;;;;;;;;6213592;23;20083;-65
2023/08/29 08:08:27;;;;;;;5.78;1.10;;;;;;;;;;6213420;23;20547;-66
2023/08/29 08:10:54;;;;;;;1.70;1.10;;;;;;;;;;6213426;23;20067;-65
2023/08/29 08:13:20;;;;;;;1.42;1.10;;;;;;;;;;6213455;23;20376;-65
2023/08/29 08:15:47;;;;;;;1.08;1.00;;;;;;;;;;6212991;23;20087;-66
2023/08/29 08:18:13;;;;;;;2.10;1.05;;;;;;;;;;6213444;23;20067;-65
2023/08/29 08:20:39;;;;;;;1.45;0.90;;;;;;;;;;6213025;23;20092;-66
2023/08/29 08:23:06;;;;;;;3.55;1.08;;;;;;;;;;6211440;23;20072;-65
2023/08/29 08:25:32;;;;;;;3.97;1.17;;;;;;;;;;6213274;23;20071;-66
2023/08/29 08:27:58;;;;;;;3.42;1.17;;;;;;;;;;6213415;23;20495;-66
2023/08/29 08:30:25;;;;;;;1.90;1.10;;;;;;;;;;6212884;23;20080;-66
2023/08/29 08:32:51;;;;;;;2.67;1.20;;;;;;;;;;6213323;23;20072;-66
2023/08/29 08:35:18;;;;;;;2.08;0.80;;;;;;;;;;6213003;23;20115;-65
2023/08/29 08:37:44;;;;;;;1.45;0.90;;;;;;;;;;6213212;23;20527;-66
2023/08/29 08:40:11;;;;;;;5.22;1.10;;;;;;;;;;6213178;23;20087;-66
2023/08/29 08:42:39;;;;;;;1.08;0.90;;;;;;;;;;6213335;23;20172;-66
2023/08/29 08:45:06;;;;;;;2.45;1.10;;;;;;;;;;6212396;23;20019;-66
2023/08/29 08:47:35;;;;;;;3.33;1.10;;;;;;;;;;6213028;23;20083;-66
2023/08/29 08:50:02;;;;;;;1.88;1.08;;;;;;;;;;6213598;23;20084;-66
2023/08/29 08:52:31;;;;;;;4.55;0.90;;;;;;;;;;6213042;23;20075;-66
2023/08/29 08:54:57;;;;;;;3.38;1.10;;;;;;;;;;6186842;23;20071;-66
2023/08/29 08:57:25;;;;;;;3.83;1.35;;;;;;;;;;6212838;23;20091;-66
2023/08/29 08:59:51;;;;;;;3.15;1.40;;;;;;;;;;6213081;23;20087;-66
2023/08/29 09:02:18;;;;;;;1.55;0.90;;;;;;;;;;6212983;23;20079;-66
2023/08/29 09:04:45;;;;;;;1.25;0.80;;;;;;;;;;6212216;23;20083;-66
2023/08/29 09:07:11;;;;;;;2.53;1.15;;;;;;;;;;6213056;23;20068;-66
2023/08/29 09:09:38;;;;;;;1.20;0.90;;;;;;;;;;6211493;23;20127;-67
2023/08/29 09:12:04;;;;;;;1.85;1.10;;;;;;;;;;6214642;23;20558;-66
2023/08/29 09:14:32;;;;;;;1.77;1.00;;;;;;;;;;6215000;23;20072;-66
2023/08/29 09:16:59;;;;;;;2.72;1.00;;;;;;;;;;6214661;23;20494;-67
2023/08/29 09:19:26;;;;;;;2.75;1.20;;;;;;;;;;6214939;23;20145;-66
2023/08/29 09:21:52;;;;;;;2.88;1.05;;;;;;;;;;6214699;23;20132;-66
2023/08/29 09:24:34;;;;;;;1.08;0.98;;;;;;;;;;6214464;23;20083;-66
2023/08/29 09:27:10;;;;;;;6.78;1.10;;;;;;;;;;6214232;23;20139;-66
2023/08/29 09:29:37;;;;;;;1.55;1.00;;;;;;;;;;6214580;23;20127;-66
2023/08/29 09:32:13;;;;;;;1.58;1.00;;;;;;;;;;6214729;23;20068;-66
2023/08/29 09:34:40;;;;;;;2.33;1.00;;;;;;;;;;6214635;23;20123;-66
2023/08/29 09:37:07;;;;;;;2.35;1.05;;;;;;;;;;6214046;23;20076;-66
2023/08/29 09:39:33;;;;;;;1.33;0.98;;;;;;;;;;6214536;23;20080;-66
2023/08/29 09:42:06;;;;;;;3.55;1.05;;;;;;;;;;6187641;23;20075;-66
2023/08/29 09:44:37;;;;;;;1.30;1.00;;;;;;;;;;6214654;23;20512;-66
2023/08/29 09:47:07;;;;;;;1.45;0.70;;;;;;;;;;6213688;23;20092;-66
2023/08/29 09:49:45;;;;;;;1.63;1.00;;;;;;;;;;6214629;23;20079;-66
2023/08/29 09:52:12;;;;;;;1.13;1.02;;;;;;;;;;6214438;23;20076;-67
2023/08/29 09:54:44;;;;;;;1.20;1.00;;;;;;;;;;6214710;23;20514;-67
2023/08/29 09:57:12;;;;;;;2.33;0.95;;;;;;;;;;6214139;23;20092;-67
2023/08/29 09:59:39;;;;;;;2.40;1.00;;;;;;;;;;6214252;23;20075;-66
2023/08/29 10:02:07;;;;;;;2.20;1.10;;;;;;;;;;6214595;23;20080;-67
2023/08/29 10:04:35;;;;;;;0.82;0.82;;;;;;;;;;6214399;23;20119;-67
2023/08/29 10:07:02;;;;;;;1.38;0.90;;;;;;;;;;6214413;23;20099;-67
2023/08/29 10:09:29;;;;;;;1.10;0.80;;;;;;;;;;6214760;23;20108;-67
2023/08/29 10:11:56;;;;;;;1.52;0.90;;;;;;;;;;6213611;23;20067;-67
2023/08/29 10:14:23;;;;;;;2.22;0.88;;;;;;;;;;6214311;23;20071;-67
2023/08/29 10:16:50;;;;;;;1.27;1.02;;;;;;;;;;6214908;23;20083;-67
2023/08/29 10:19:17;;;;;;;1.33;0.80;;;;;;;;;;6215038;23;20080;-67
2023/08/29 10:21:43;;;;;;;4.07;1.00;;;;;;;;;;6214425;23;20075;-67
2023/08/29 10:24:12;;;;;;;1.10;0.90;;;;;;;;;;6214748;23;20092;-67
2023/08/29 10:26:39;;;;;;;1.30;0.88;;;;;;;;;;6214687;23;20068;-67
2023/08/29 10:29:05;;;;;;;1.92;1.00;;;;;;;;;;6214800;23;20079;-67
2023/08/29 10:31:34;;;;;;;2.83;1.73;;;;;;;;;;6214716;23;20067;-67
2023/08/29 10:34:03;;;;;;;3.38;1.15;;;;;;;;;;6215021;23;20463;-67
2023/08/29 10:36:30;;;;;;;2.97;1.27;;;;;;;;;;6214609;23;20405;-67
2023/08/29 10:38:58;;;;;;;1.08;0.98;;;;;;;;;;6214152;23;20557;-66
2023/08/29 10:41:24;;;;;;;1.05;0.88;;;;;;;;;;6215050;23;20072;-67
2023/08/29 10:43:53;;;;;;;1.50;1.27;;;;;;;;;;6214290;23;20075;-67
2023/08/29 10:46:20;;;;;;;5.85;1.20;;;;;;;;;;6215064;23;20084;-67
2023/08/29 10:48:46;;;;;;;1.83;1.13;;;;;;;;;;6215639;23;20079;-67
2023/08/29 10:51:14;;;;;;;1.40;0.90;;;;;;;;;;6215065;23;20076;-66
2023/08/29 10:53:43;;;;;;;1.35;0.98;;;;;;;;;;6214562;23;20123;-66
2023/08/29 10:56:09;;;;;;;1.73;1.08;;;;;;;;;;6215134;23;20079;-67
2023/08/29 10:58:38;;;;;;;2.13;1.15;;;;;;;;;;6215121;23;20084;-67
2023/08/29 11:01:26;;;;;;;1.95;1.20;;;;;;;;;;6215039;23;20072;-67
2023/08/29 11:03:53;;;;;;;1.17;0.90;;;;;;;;;;6214878;23;20088;-67
2023/08/29 11:06:20;;;;;;;1.48;1.15;;;;;;;;;;6214882;23;20526;-67
2023/08/29 11:08:47;;;;;;;1.75;1.08;;;;;;;;;;6214595;23;20067;-67
2023/08/29 11:11:14;;;;;;;1.90;1.00;;;;;;;;;;6215294;23;20490;-67
2023/08/29 11:13:59;;;;;;;2.90;1.15;;;;;;;;;;6214712;23;20079;-67
2023/08/29 11:16:26;;;;;;;1.98;0.98;;;;;;;;;;6214844;23;20065;-67
2023/08/29 11:19:05;;;;;;;1.90;1.30;;;;;;;;;;6214830;23;20067;-67
2023/08/29 11:21:32;;;;;;;1.27;1.15;;;;;;;;;;6215065;23;20433;-67
2023/08/29 11:23:59;;;;;;;2.40;1.15;;;;;;;;;;6214146;23;20084;-67
2023/08/29 11:26:25;;;;;;;1.02;0.93;;;;;;;;;;6214708;23;20064;-67
2023/08/29 11:28:52;;;;;;;1.48;1.17;;;;;;;;;;6214889;23;20076;-67
2023/08/29 11:31:18;;;;;;;1.00;0.90;;;;;;;;;;6214805;23;20075;-67
2023/08/29 11:33:48;;;;;;;1.50;0.90;;;;;;;;;;6214696;23;20079;-67
2023/08/29 11:36:15;;;;;;;3.92;1.27;;;;;;;;;;6214505;23;20087;-67
2023/08/29 11:38:43;;;;;;;1.23;1.10;;;;;;;;;;6214334;23;20499;-67
2023/08/29 11:41:10;;;;;;;1.25;1.05;;;;;;;;;;6214508;23;20060;-67
2023/08/29 11:43:37;;;;;;;1.65;1.10;;;;;;;;;;6214486;23;20075;-67
2023/08/29 11:46:06;;;;;;;1.63;1.10;;;;;;;;;;6214685;23;20119;-67
2023/08/29 11:48:32;;;;;;;1.00;0.98;;;;;;;;;;6214483;23;20135;-67
2023/08/29 11:51:05;;;;;;;3.53;1.45;;;;;;;;;;6214522;23;20075;-67
2023/08/29 11:53:33;;;;;;;1.50;1.17;;;;;;;;;;6214044;23;20076;-67
2023/08/29 11:56:00;;;;;;;2.95;1.50;;;;;;;;;;6185101;23;20088;-67
2023/08/29 11:58:37;;;;;;;3.35;1.17;;;;;;;;;;6213766;23;20076;-67
2023/08/29 12:01:05;;;;;;;4.43;1.70;;;;;;;;;;6213497;23;20072;-67
2023/08/29 12:03:34;;;;;;;7.97;1.38;;;;;;;;;;6210556;23;20587;-67
2023/08/29 12:06:03;;;;;;;2.13;1.35;;;;;;;;;;6211772;23;20084;-66
2023/08/29 12:08:40;;;;;;;2.45;1.13;;;;;;;;;;6213179;23;20075;-67
2023/08/29 12:11:07;;;;;;;1.88;1.20;;;;;;;;;;6212867;23;20487;-67
2023/08/29 12:13:35;;;;;;;2.83;1.20;;;;;;;;;;6212827;23;20118;-67
2023/08/29 12:16:02;;;;;;;1.85;1.33;;;;;;;;;;6213210;23;20076;-67
2023/08/29 12:18:29;;;;;;;3.70;1.45;;;;;;;;;;6212947;23;20487;-67
2023/08/29 12:21:15;;;;;;;2.60;1.50;;;;;;;;;;6186566;23;20067;-67
2023/08/29 12:23:42;;;;;;;2.50;1.27;;;;;;;;;;6213101;23;20079;-66
2023/08/29 12:26:09;;;;;;;2.30;1.10;;;;;;;;;;6213109;23;20079;-67
2023/08/29 12:28:35;;;;;;;2.75;1.38;;;;;;;;;;6213494;23;20494;-67
2023/08/29 12:31:02;;;;;;;2.08;1.30;;;;;;;;;;6186722;23;20076;-66
2023/08/29 12:33:28;;;;;;;2.05;1.25;;;;;;;;;;6212776;23;20076;-66
2023/08/29 12:35:55;;;;;;;5.38;1.38;;;;;;;;;;6212660;23;20414;-66
2023/08/29 12:38:26;;;;;;;2.00;1.30;;;;;;;;;;6213301;23;20502;-67
2023/08/29 12:40:53;;;;;;;3.63;1.33;;;;;;;;;;6213349;23;20076;-67
2023/08/29 12:43:19;;;;;;;2.35;1.42;;;;;;;;;;6213116;23;20075;-67
2023/08/29 12:45:46;;;;;;;1.40;1.30;;;;;;;;;;6215191;23;20072;-67
2023/08/29 12:48:14;;;;;;;1.98;1.30;;;;;;;;;;6215141;23;20080;-67
2023/08/29 12:50:40;;;;;;;2.83;1.52;;;;;;;;;;6214887;23;20076;-67
2023/08/29 12:53:06;;;;;;;2.13;1.23;;;;;;;;;;6214735;23;20095;-67
2023/08/29 12:55:33;;;;;;;3.72;1.40;;;;;;;;;;6215118;23;20134;-67
2023/08/29 12:57:59;;;;;;;1.95;1.08;;;;;;;;;;6215162;23;20079;-67
2023/08/29 13:00:25;;;;;;;2.13;1.40;;;;;;;;;;6215308;23;20308;-67
2023/08/29 13:02:52;;;;;;;2.40;1.55;;;;;;;;;;6188223;23;20415;-67
2023/08/29 13:05:18;;;;;;;2.75;1.67;;;;;;;;;;6214319;23;20027;-67
2023/08/29 13:07:47;;;;;;;1.70;1.25;;;;;;;;;;6215200;23;20072;-67
2023/08/29 13:10:14;;;;;;;3.03;1.50;;;;;;;;;;6214824;23;20072;-67
2023/08/29 13:12:40;;;;;;;1.70;1.33;;;;;;;;;;6215263;23;20072;-67
2023/08/29 13:15:10;;;;;;;4.80;1.70;;;;;;;;;;6214880;23;20398;-67
2023/08/29 13:17:38;;;;;;;1.90;1.30;;;;;;;;;;6214987;23;20491;-67
2023/08/29 13:20:05;;;;;;;6.30;1.60;;;;;;;;;;6214567;23;20064;-67
2023/08/29 13:22:31;;;;;;;2.53;1.60;;;;;;;;;;6214928;23;20080;-67
2023/08/29 13:24:58;;;;;;;2.47;1.48;;;;;;;;;;6214939;23;20008;-67
2023/08/29 13:27:24;;;;;;;1.92;1.50;;;;;;;;;;6214316;23;20068;-67
2023/08/29 13:29:50;;;;;;;2.08;1.50;;;;;;;;;;6213903;23;20079;-67
2023/08/29 13:32:17;;;;;;;1.73;1.50;;;;;;;;;;6213792;23;20076;-67
2023/08/29 13:34:43;;;;;;;2.35;1.60;;;;;;;;;;6213330;23;20084;-67
2023/08/29 13:37:09;;;;;;;1.73;1.40;;;;;;;;;;6214446;23;20092;-67
2023/08/29 13:39:36;;;;;;;1.77;1.50;;;;;;;;;;6214907;23;20119;-67
2023/08/29 13:42:03;;;;;;;4.20;1.58;;;;;;;;;;6214979;23;20072;-67
2023/08/29 13:44:29;;;;;;;4.30;1.90;;;;;;;;;;6214664;23;20016;-67
2023/08/29 13:46:55;;;;;;;2.38;1.30;;;;;;;;;;6214719;23;20110;-67
2023/08/29 13:49:22;;;;;;;3.45;1.85;;;;;;;;;;6214502;23;20087;-67
2023/08/29 13:51:48;;;;;;;3.13;2.00;;;;;;;;;;6214730;23;20111;-66
2023/08/29 13:54:15;;;;;;;4.15;2.00;;;;;;;;;;6215050;23;20083;-67
2023/08/29 13:56:43;;;;;;;4.05;1.83;;;;;;;;;;6213786;23;20498;-67
2023/08/29 13:59:10;;;;;;;2.28;1.55;;;;;;;;;;6214462;23;20396;-67
2023/08/29 14:01:36;;;;;;;4.75;2.03;;;;;;;;;;6214592;23;20076;-67
2023/08/29 14:04:02;;;;;;;2.25;1.58;;;;;;;;;;6213950;23;20011;-67
2023/08/29 14:06:28;;;;;;;3.88;1.65;;;;;;;;;;6214612;23;20092;-67
2023/08/29 14:08:55;;;;;;;2.65;1.55;;;;;;;;;;6214459;23;20077;-67
2023/08/29 14:11:21;;;;;;;2.70;1.65;;;;;;;;;;6214607;23;20511;-67
2023/08/29 14:13:47;;;;;;;3.63;1.90;;;;;;;;;;6214345;23;20072;-67
2023/08/29 14:16:14;;;;;;;2.10;1.58;;;;;;;;;;6214591;23;20099;-67
2023/08/29 14:18:42;;;;;;;2.58;1.83;;;;;;;;;;6214071;23;20064;-67
2023/08/29 14:21:09;;;;;;;2.95;1.85;;;;;;;;;;6214243;23;20092;-67
2023/08/29 14:23:35;;;;;;;3.75;1.83;;;;;;;;;;6214338;23;20514;-67
2023/08/29 14:26:02;;;;;;;2.67;1.80;;;;;;;;;;6214679;23;20083;-67
2023/08/29 14:28:28;;;;;;;2.28;1.70;;;;;;;;;;6214487;23;20072;-67
2023/08/29 14:30:55;;;;;;;3.03;1.80;;;;;;;;;;6213745;23;20083;-67
2023/08/29 14:33:21;;;;;;;3.35;1.80;;;;;;;;;;6214492;23;20048;-67
2023/08/29 14:35:53;;;;;;;3.70;2.00;;;;;;;;;;6214151;23;20083;-67
2023/08/29 14:38:20;;;;;;;4.57;1.88;;;;;;;;;;6214762;23;20079;-67
2023/08/29 14:40:47;;;;;;;2.30;1.80;;;;;;;;;;6214323;23;20494;-68
2023/08/29 14:43:13;;;;;;;5.47;2.30;;;;;;;;;;6214301;23;20068;-67